sensor_id;sensor_type;location;lat;lon;timestamp;pressure;altitude;pressure_sealevel;temperature;humidity
32759;BME280;19125;52.360;9.974;2023-06-14T00:00:13;85494.78;;;-145.17;39.13
32759;BME280;19125;52.360;9.974;2023-06-14T00:02:40;85413.41;;;-145.17;39.05
32759;BME280;19125;52.360;9.974;2023-06-14T00:05:06;85443.19;;;-145.17;39.20
32759;BME280;19125;52.360;9.974;2023-06-14T00:07:36;85468.97;;;-145.17;39.14
32759;BME280;19125;52.360;9.974;2023-06-14T00:10:04;85463.03;;;-145.17;38.86
32759;BME280;19125;52.360;9.974;2023-06-14T00:12:30;85463.03;;;-145.17;39.18
32759;BME280;19125;52.360;9.974;2023-06-14T00:14:56;85496.75;;;-145.17;39.09
32759;BME280;19125;52.360;9.974;2023-06-14T00:17:21;85480.88;;;-145.17;39.41
32759;BME280;19125;52.360;9.974;2023-06-14T00:19:47;85486.84;;;-145.17;39.50
32759;BME280;19125;52.360;9.974;2023-06-14T00:22:13;85470.97;;;-145.17;39.77
32759;BME280;19125;52.360;9.974;2023-06-14T00:24:38;85468.97;;;-145.17;39.92
32759;BME280;19125;52.360;9.974;2023-06-14T00:27:04;85492.78;;;-145.17;39.69
32759;BME280;19125;52.360;9.974;2023-06-14T00:29:29;85496.75;;;-145.17;39.71
32759;BME280;19125;52.360;9.974;2023-06-14T00:31:55;85494.78;;;-145.17;40.05
32759;BME280;19125;52.360;9.974;2023-06-14T00:34:20;85520.56;;;-145.17;39.78
32759;BME280;19125;52.360;9.974;2023-06-14T00:36:45;85502.69;;;-145.17;39.99
32759;BME280;19125;52.360;9.974;2023-06-14T00:39:11;85496.75;;;-145.17;40.11
32759;BME280;19125;52.360;9.974;2023-06-14T00:41:37;85530.47;;;-145.17;39.99
32759;BME280;19125;52.360;9.974;2023-06-14T00:44:02;85546.34;;;-145.17;40.10
32759;BME280;19125;52.360;9.974;2023-06-14T00:46:28;85548.34;;;-145.17;40.55
32759;BME280;19125;52.360;9.974;2023-06-14T00:48:54;85532.47;;;-145.17;40.35
32759;BME280;19125;52.360;9.974;2023-06-14T00:51:21;85556.28;;;-145.17;40.55
32759;BME280;19125;52.360;9.974;2023-06-14T00:53:46;85558.25;;;-145.17;41.18
32759;BME280;19125;52.360;9.974;2023-06-14T00:56:13;85609.84;;;-145.17;40.97
32759;BME280;19125;52.360;9.974;2023-06-14T00:58:40;85566.19;;;-145.17;41.38
32759;BME280;19125;52.360;9.974;2023-06-14T01:01:06;85609.84;;;-145.17;41.60
32759;BME280;19125;52.360;9.974;2023-06-14T01:03:31;85617.78;;;-145.17;41.62
32759;BME280;19125;52.360;9.974;2023-06-14T01:08:47;85586.03;;;-145.17;42.03
32759;BME280;19125;52.360;9.974;2023-06-14T01:11:22;85586.03;;;-145.17;41.86
32759;BME280;19125;52.360;9.974;2023-06-14T01:13:51;85611.81;;;-145.17;42.12
32759;BME280;19125;52.360;9.974;2023-06-14T01:16:19;85615.78;;;-145.17;42.09
32759;BME280;19125;52.360;9.974;2023-06-14T01:18:45;85611.81;;;-145.17;41.99
32759;BME280;19125;52.360;9.974;2023-06-14T01:21:23;85613.81;;;-145.17;42.11
32759;BME280;19125;52.360;9.974;2023-06-14T01:23:49;85629.69;;;-145.17;42.39
32759;BME280;19125;52.360;9.974;2023-06-14T01:26:19;85619.75;;;-145.17;42.06
32759;BME280;19125;52.360;9.974;2023-06-14T01:28:44;85592.00;;;-145.17;42.21
32759;BME280;19125;52.360;9.974;2023-06-14T01:31:17;85617.78;;;-145.17;42.33
32759;BME280;19125;52.360;9.974;2023-06-14T01:33:43;85661.44;;;-145.17;42.81
32759;BME280;19125;52.360;9.974;2023-06-14T01:36:09;85635.63;;;-145.17;42.93
32759;BME280;19125;52.360;9.974;2023-06-14T01:38:36;85681.28;;;-145.17;42.96
32759;BME280;19125;52.360;9.974;2023-06-14T01:41:03;85653.50;;;-145.17;43.30
32759;BME280;19125;52.360;9.974;2023-06-14T01:43:30;85707.06;;;-145.17;43.61
32759;BME280;19125;52.360;9.974;2023-06-14T01:45:57;85695.16;;;-145.17;43.59
32759;BME280;19125;52.360;9.974;2023-06-14T01:48:23;85683.25;;;-145.17;43.52
32759;BME280;19125;52.360;9.974;2023-06-14T01:50:49;85673.34;;;-145.17;43.61
32759;BME280;19125;52.360;9.974;2023-06-14T01:53:15;85693.19;;;-145.17;43.79
32759;BME280;19125;52.360;9.974;2023-06-14T01:55:41;85673.34;;;-145.17;43.91
32759;BME280;19125;52.360;9.974;2023-06-14T01:58:08;85675.31;;;-145.17;44.07
32759;BME280;19125;52.360;9.974;2023-06-14T02:00:34;85715.00;;;-145.17;44.06
32759;BME280;19125;52.360;9.974;2023-06-14T02:03:00;85655.47;;;-145.17;43.93
32759;BME280;19125;52.360;9.974;2023-06-14T02:05:25;85711.03;;;-145.17;44.16
32759;BME280;19125;52.360;9.974;2023-06-14T02:07:51;85691.19;;;-145.17;44.31
32759;BME280;19125;52.360;9.974;2023-06-14T02:10:18;85715.00;;;-145.17;44.30
32759;BME280;19125;52.360;9.974;2023-06-14T02:12:43;85699.13;;;-145.17;44.50
32759;BME280;19125;52.360;9.974;2023-06-14T02:15:09;85730.88;;;-145.17;44.57
32759;BME280;19125;52.360;9.974;2023-06-14T02:17:35;85717.00;;;-145.17;44.36
32759;BME280;19125;52.360;9.974;2023-06-14T02:20:00;85754.69;;;-145.17;44.87
32759;BME280;19125;52.360;9.974;2023-06-14T02:22:26;85715.00;;;-145.17;44.74
32759;BME280;19125;52.360;9.974;2023-06-14T02:24:51;85744.75;;;-145.17;44.72
32759;BME280;19125;52.360;9.974;2023-06-14T02:27:16;85711.03;;;-145.17;45.13
32759;BME280;19125;52.360;9.974;2023-06-14T02:29:42;85728.88;;;-145.17;45.02
32759;BME280;19125;52.360;9.974;2023-06-14T02:32:07;85748.72;;;-145.17;44.97
32759;BME280;19125;52.360;9.974;2023-06-14T02:34:34;85738.81;;;-145.17;44.91
32759;BME280;19125;52.360;9.974;2023-06-14T02:37:00;85756.66;;;-145.17;44.97
32759;BME280;19125;52.360;9.974;2023-06-14T02:39:25;85766.59;;;-145.17;44.89
32759;BME280;19125;52.360;9.974;2023-06-14T02:41:51;85762.63;;;-145.17;44.85
32759;BME280;19125;52.360;9.974;2023-06-14T02:44:19;85734.84;;;-145.17;44.99
32759;BME280;19125;52.360;9.974;2023-06-14T02:46:45;85756.66;;;-145.17;45.19
32759;BME280;19125;52.360;9.974;2023-06-14T02:49:11;85782.47;;;-145.17;45.35
32759;BME280;19125;52.360;9.974;2023-06-14T02:51:36;85770.56;;;-145.17;45.60
32759;BME280;19125;52.360;9.974;2023-06-14T02:54:01;85770.56;;;-145.17;45.29
32759;BME280;19125;52.360;9.974;2023-06-14T02:56:27;85730.88;;;-145.17;45.43
32759;BME280;19125;52.360;9.974;2023-06-14T02:58:55;85738.81;;;-145.17;45.39
32759;BME280;19125;52.360;9.974;2023-06-14T03:01:20;85724.94;;;-145.17;45.08
32759;BME280;19125;52.360;9.974;2023-06-14T03:03:46;85782.47;;;-145.17;45.30
32759;BME280;19125;52.360;9.974;2023-06-14T03:06:12;85754.69;;;-145.17;45.29
32759;BME280;19125;52.360;9.974;2023-06-14T03:08:41;85730.88;;;-145.17;45.58
32759;BME280;19125;52.360;9.974;2023-06-14T03:11:07;85738.81;;;-145.17;45.50
32759;BME280;19125;52.360;9.974;2023-06-14T03:13:36;85760.63;;;-145.17;45.54
32759;BME280;19125;52.360;9.974;2023-06-14T03:16:02;85774.53;;;-145.17;45.55
32759;BME280;19125;52.360;9.974;2023-06-14T03:18:29;85738.81;;;-145.17;45.40
32759;BME280;19125;52.360;9.974;2023-06-14T03:20:56;85740.78;;;-145.17;45.12
32759;BME280;19125;52.360;9.974;2023-06-14T03:23:24;85619.75;;;-145.17;44.73
32759;BME280;19125;52.360;9.974;2023-06-14T03:25:50;85520.56;;;-145.17;43.47
32759;BME280;19125;52.360;9.974;2023-06-14T03:28:16;85498.75;;;-145.17;42.55
32759;BME280;19125;52.360;9.974;2023-06-14T03:30:42;85417.38;;;-145.17;41.39
32759;BME280;19125;52.360;9.974;2023-06-14T03:33:07;85349.94;;;-145.17;40.07
32759;BME280;19125;52.360;9.974;2023-06-14T03:35:33;85308.28;;;-145.17;39.21
32759;BME280;19125;52.360;9.974;2023-06-14T03:37:59;85258.69;;;-145.17;38.33
32759;BME280;19125;52.360;9.974;2023-06-14T03:40:24;85175.34;;;-145.17;37.58
32759;BME280;19125;52.360;9.974;2023-06-14T03:42:52;85103.94;;;-145.17;36.70
32759;BME280;19125;52.360;9.974;2023-06-14T03:45:18;85054.34;;;-145.17;36.10
32759;BME280;19125;52.360;9.974;2023-06-14T03:47:43;85060.28;;;-145.17;35.64
32759;BME280;19125;52.360;9.974;2023-06-14T03:50:09;85020.59;;;-145.17;35.14
32759;BME280;19125;52.360;9.974;2023-06-14T03:52:34;84978.94;;;-145.17;34.74
32759;BME280;19125;52.360;9.974;2023-06-14T03:55:00;84935.31;;;-145.17;34.31
32759;BME280;19125;52.360;9.974;2023-06-14T03:57:25;84937.28;;;-145.17;33.76
32759;BME280;19125;52.360;9.974;2023-06-14T03:59:51;84881.75;;;-145.17;33.22
32759;BME280;19125;52.360;9.974;2023-06-14T04:02:16;84869.84;;;-145.17;33.03
32759;BME280;19125;52.360;9.974;2023-06-14T04:04:43;84857.94;;;-145.17;32.57
32759;BME280;19125;52.360;9.974;2023-06-14T04:07:14;84822.22;;;-145.17;32.25
32759;BME280;19125;52.360;9.974;2023-06-14T04:09:39;84758.75;;;-145.17;32.38
32759;BME280;19125;52.360;9.974;2023-06-14T04:12:06;84673.47;;;-145.17;31.72
32759;BME280;19125;52.360;9.974;2023-06-14T04:14:34;84707.19;;;-145.17;31.44
32759;BME280;19125;52.360;9.974;2023-06-14T04:16:59;84683.38;;;-145.17;31.05
32759;BME280;19125;52.360;9.974;2023-06-14T04:19:24;84609.97;;;-145.17;31.00
32759;BME280;19125;52.360;9.974;2023-06-14T04:21:50;84639.75;;;-145.17;30.73
32759;BME280;19125;52.360;9.974;2023-06-14T04:24:16;84600.06;;;-145.17;30.83
32759;BME280;19125;52.360;9.974;2023-06-14T04:26:42;84608.00;;;-145.17;30.63
32759;BME280;19125;52.360;9.974;2023-06-14T04:29:12;84619.91;;;-145.17;30.73
32759;BME280;19125;52.360;9.974;2023-06-14T04:31:45;84667.50;;;-145.17;31.18
32759;BME280;19125;52.360;9.974;2023-06-14T04:34:10;84679.41;;;-145.17;31.54
32759;BME280;19125;52.360;9.974;2023-06-14T04:36:40;84840.09;;;-145.17;32.50
32759;BME280;19125;52.360;9.974;2023-06-14T04:39:07;84929.34;;;-145.17;33.36
32759;BME280;19125;52.360;9.974;2023-06-14T04:41:33;85008.72;;;-145.17;34.70
32759;BME280;19125;52.360;9.974;2023-06-14T04:43:59;85099.97;;;-145.17;35.57
32759;BME280;19125;52.360;9.974;2023-06-14T04:46:29;85147.56;;;-145.17;36.54
32759;BME280;19125;52.360;9.974;2023-06-14T04:48:55;85201.13;;;-145.17;37.14
32759;BME280;19125;52.360;9.974;2023-06-14T04:51:21;85234.88;;;-145.17;37.88
32759;BME280;19125;52.360;9.974;2023-06-14T04:53:57;85310.25;;;-145.17;38.21
32759;BME280;19125;52.360;9.974;2023-06-14T04:56:24;85294.38;;;-145.17;38.63
32759;BME280;19125;52.360;9.974;2023-06-14T04:58:51;85290.41;;;-145.17;38.74
32759;BME280;19125;52.360;9.974;2023-06-14T05:01:16;85292.41;;;-145.17;38.62
32759;BME280;19125;52.360;9.974;2023-06-14T05:03:42;85320.19;;;-145.17;38.79
32759;BME280;19125;52.360;9.974;2023-06-14T05:06:10;85238.84;;;-145.17;39.08
32759;BME280;19125;52.360;9.974;2023-06-14T05:08:37;85320.19;;;-145.17;39.11
32759;BME280;19125;52.360;9.974;2023-06-14T05:11:02;85312.25;;;-145.17;39.25
32759;BME280;19125;52.360;9.974;2023-06-14T05:13:28;85314.22;;;-145.17;39.24
32759;BME280;19125;52.360;9.974;2023-06-14T05:15:53;85272.56;;;-145.17;39.03
32759;BME280;19125;52.360;9.974;2023-06-14T05:18:18;85284.47;;;-145.17;39.00
32759;BME280;19125;52.360;9.974;2023-06-14T05:20:45;85254.72;;;-145.17;39.06
32759;BME280;19125;52.360;9.974;2023-06-14T05:23:11;85276.53;;;-145.17;38.99
32759;BME280;19125;52.360;9.974;2023-06-14T05:25:45;85284.47;;;-145.17;38.84
32759;BME280;19125;52.360;9.974;2023-06-14T05:28:11;85290.41;;;-145.17;38.97
32759;BME280;19125;52.360;9.974;2023-06-14T05:30:39;85274.53;;;-145.17;39.09
32759;BME280;19125;52.360;9.974;2023-06-14T05:33:05;85270.56;;;-145.17;38.77
32759;BME280;19125;52.360;9.974;2023-06-14T05:35:30;85270.56;;;-145.17;38.62
32759;BME280;19125;52.360;9.974;2023-06-14T05:37:56;85224.94;;;-145.17;38.47
32759;BME280;19125;52.360;9.974;2023-06-14T05:40:21;85270.56;;;-145.17;38.43
32759;BME280;19125;52.360;9.974;2023-06-14T05:42:46;85205.09;;;-145.17;38.80
32759;BME280;19125;52.360;9.974;2023-06-14T05:45:12;85230.91;;;-145.17;38.52
32759;BME280;19125;52.360;9.974;2023-06-14T05:47:37;85195.19;;;-145.17;38.13
32759;BME280;19125;52.360;9.974;2023-06-14T05:50:03;85201.13;;;-145.17;38.61
32759;BME280;19125;52.360;9.974;2023-06-14T05:52:28;85211.06;;;-145.17;38.53
32759;BME280;19125;52.360;9.974;2023-06-14T05:54:55;85173.38;;;-145.17;38.71
32759;BME280;19125;52.360;9.974;2023-06-14T05:57:20;85183.28;;;-145.17;38.37
32759;BME280;19125;52.360;9.974;2023-06-14T05:59:46;85173.38;;;-145.17;38.15
32759;BME280;19125;52.360;9.974;2023-06-14T06:02:11;85131.72;;;-145.17;38.22
32759;BME280;19125;52.360;9.974;2023-06-14T06:04:36;85161.47;;;-145.17;37.96
32759;BME280;19125;52.360;9.974;2023-06-14T06:07:02;85153.53;;;-145.17;38.31
32759;BME280;19125;52.360;9.974;2023-06-14T06:09:30;85151.53;;;-145.17;38.01
32759;BME280;19125;52.360;9.974;2023-06-14T06:11:56;85125.75;;;-145.17;37.65
32759;BME280;19125;52.360;9.974;2023-06-14T06:14:21;85143.59;;;-145.17;37.81
32759;BME280;19125;52.360;9.974;2023-06-14T06:16:46;85111.88;;;-145.17;37.49
32759;BME280;19125;52.360;9.974;2023-06-14T06:19:12;85133.69;;;-145.17;37.53
32759;BME280;19125;52.360;9.974;2023-06-14T06:21:37;85105.91;;;-145.17;37.49
32759;BME280;19125;52.360;9.974;2023-06-14T06:24:04;85123.78;;;-145.17;37.46
32759;BME280;19125;52.360;9.974;2023-06-14T06:26:31;85088.06;;;-145.17;37.34
32759;BME280;19125;52.360;9.974;2023-06-14T06:28:56;85099.97;;;-145.17;37.31
32759;BME280;19125;52.360;9.974;2023-06-14T06:31:22;85068.22;;;-145.17;37.05
32759;BME280;19125;52.360;9.974;2023-06-14T06:33:47;85066.25;;;-145.17;36.95
32759;BME280;19125;52.360;9.974;2023-06-14T06:36:13;85066.25;;;-145.17;36.83
32759;BME280;19125;52.360;9.974;2023-06-14T06:38:38;85076.16;;;-145.17;36.78
32759;BME280;19125;52.360;9.974;2023-06-14T06:41:03;85038.47;;;-145.17;36.62
32759;BME280;19125;52.360;9.974;2023-06-14T06:43:29;85042.44;;;-145.17;36.33
32759;BME280;19125;52.360;9.974;2023-06-14T06:45:54;85050.38;;;-145.17;36.57
32759;BME280;19125;52.360;9.974;2023-06-14T06:48:19;85014.66;;;-145.17;36.08
32759;BME280;19125;52.360;9.974;2023-06-14T06:50:45;84988.88;;;-145.17;36.49
32759;BME280;19125;52.360;9.974;2023-06-14T06:53:10;85016.66;;;-145.17;36.55
32759;BME280;19125;52.360;9.974;2023-06-14T06:55:35;85032.50;;;-145.17;36.22
32759;BME280;19125;52.360;9.974;2023-06-14T06:58:01;85026.56;;;-145.17;35.71
32759;BME280;19125;52.360;9.974;2023-06-14T07:00:29;84998.78;;;-145.17;36.26
32759;BME280;19125;52.360;9.974;2023-06-14T07:02:55;85014.66;;;-145.17;35.49
32759;BME280;19125;52.360;9.974;2023-06-14T07:05:20;85026.56;;;-145.17;35.52
32759;BME280;19125;52.360;9.974;2023-06-14T07:07:45;84992.84;;;-145.17;35.91
32759;BME280;19125;52.360;9.974;2023-06-14T07:10:11;85008.72;;;-145.17;35.38
32759;BME280;19125;52.360;9.974;2023-06-14T07:12:36;85006.72;;;-145.17;35.14
32759;BME280;19125;52.360;9.974;2023-06-14T07:15:05;85044.41;;;-145.17;35.86
32759;BME280;19125;52.360;9.974;2023-06-14T07:17:31;85032.50;;;-145.17;35.58
32759;BME280;19125;52.360;9.974;2023-06-14T07:19:57;84976.97;;;-145.17;35.60
32759;BME280;19125;52.360;9.974;2023-06-14T07:22:23;84969.03;;;-145.17;35.36
32759;BME280;19125;52.360;9.974;2023-06-14T07:24:48;84949.19;;;-145.17;35.06
32759;BME280;19125;52.360;9.974;2023-06-14T07:27:13;84923.41;;;-145.17;34.92
32759;BME280;19125;52.360;9.974;2023-06-14T07:29:39;84957.13;;;-145.17;34.56
32759;BME280;19125;52.360;9.974;2023-06-14T07:32:05;84959.13;;;-145.17;34.77
32759;BME280;19125;52.360;9.974;2023-06-14T07:34:30;84923.41;;;-145.17;34.66
32759;BME280;19125;52.360;9.974;2023-06-14T07:36:56;84949.19;;;-145.17;34.72
32759;BME280;19125;52.360;9.974;2023-06-14T07:39:21;84913.50;;;-145.17;34.38
32759;BME280;19125;52.360;9.974;2023-06-14T07:41:47;84949.19;;;-145.17;33.87
32759;BME280;19125;52.360;9.974;2023-06-14T07:44:12;84921.41;;;-145.17;33.81
32759;BME280;19125;52.360;9.974;2023-06-14T07:46:38;84889.69;;;-145.17;33.62
32759;BME280;19125;52.360;9.974;2023-06-14T07:49:04;84877.78;;;-145.17;33.23
32759;BME280;19125;52.360;9.974;2023-06-14T07:51:30;84969.03;;;-145.17;33.58
32759;BME280;19125;52.360;9.974;2023-06-14T07:53:55;84927.38;;;-145.17;33.82
32759;BME280;19125;52.360;9.974;2023-06-14T07:56:21;84921.41;;;-145.17;33.64
32759;BME280;19125;52.360;9.974;2023-06-14T07:58:47;84917.47;;;-145.17;33.79
32759;BME280;19125;52.360;9.974;2023-06-14T08:01:12;84834.13;;;-145.17;34.05
32759;BME280;19125;52.360;9.974;2023-06-14T08:03:38;84877.78;;;-145.17;33.20
32759;BME280;19125;52.360;9.974;2023-06-14T08:06:04;84822.22;;;-145.17;32.86
32759;BME280;19125;52.360;9.974;2023-06-14T08:08:29;84842.06;;;-145.17;32.71
32759;BME280;19125;52.360;9.974;2023-06-14T08:10:55;84800.41;;;-145.17;32.26
32759;BME280;19125;52.360;9.974;2023-06-14T08:13:21;84788.50;;;-145.17;32.49
32759;BME280;19125;52.360;9.974;2023-06-14T08:15:46;84784.53;;;-145.17;32.60
32759;BME280;19125;52.360;9.974;2023-06-14T08:18:12;84790.50;;;-145.17;32.21
32759;BME280;19125;52.360;9.974;2023-06-14T08:20:37;84774.63;;;-145.17;32.71
32759;BME280;19125;52.360;9.974;2023-06-14T08:23:03;84782.56;;;-145.17;32.21
32759;BME280;19125;52.360;9.974;2023-06-14T08:25:29;84744.88;;;-145.17;31.44
32759;BME280;19125;52.360;9.974;2023-06-14T08:27:55;84760.75;;;-145.17;31.82
32759;BME280;19125;52.360;9.974;2023-06-14T08:30:21;84778.59;;;-145.17;31.93
32759;BME280;19125;52.360;9.974;2023-06-14T08:32:46;84752.81;;;-145.17;31.27
32759;BME280;19125;52.360;9.974;2023-06-14T08:35:12;84784.53;;;-145.17;31.67
32759;BME280;19125;52.360;9.974;2023-06-14T08:37:41;84824.22;;;-145.17;31.82
32759;BME280;19125;52.360;9.974;2023-06-14T08:40:20;84818.25;;;-145.17;32.31
32759;BME280;19125;52.360;9.974;2023-06-14T08:42:56;84764.72;;;-145.17;31.35
32759;BME280;19125;52.360;9.974;2023-06-14T08:45:22;84727.03;;;-145.17;31.36
32759;BME280;19125;52.360;9.974;2023-06-14T08:47:48;84752.81;;;-145.17;31.33
32759;BME280;19125;52.360;9.974;2023-06-14T08:50:23;84762.72;;;-145.17;30.94
32759;BME280;19125;52.360;9.974;2023-06-14T08:52:54;84695.28;;;-145.17;31.28
32759;BME280;19125;52.360;9.974;2023-06-14T08:55:22;84675.44;;;-145.17;30.55
32759;BME280;19125;52.360;9.974;2023-06-14T08:57:51;84617.91;;;-145.17;30.43
32759;BME280;19125;52.360;9.974;2023-06-14T09:00:19;84681.41;;;-145.17;30.37
32759;BME280;19125;52.360;9.974;2023-06-14T09:02:46;84675.44;;;-145.17;30.53
32759;BME280;19125;52.360;9.974;2023-06-14T09:05:11;84633.78;;;-145.17;30.18
32759;BME280;19125;52.360;9.974;2023-06-14T09:07:42;84598.09;;;-145.17;30.10
32759;BME280;19125;52.360;9.974;2023-06-14T09:10:13;84520.72;;;-145.17;29.68
32759;BME280;19125;52.360;9.974;2023-06-14T09:12:39;84520.72;;;-145.17;29.64
32759;BME280;19125;52.360;9.974;2023-06-14T09:15:05;84536.59;;;-145.17;29.38
32759;BME280;19125;52.360;9.974;2023-06-14T09:17:40;84564.34;;;-145.17;28.99
32759;BME280;19125;52.360;9.974;2023-06-14T09:20:08;84564.34;;;-145.17;29.29
32759;BME280;19125;52.360;9.974;2023-06-14T09:22:43;84469.16;;;-145.17;29.33
32759;BME280;19125;52.360;9.974;2023-06-14T09:25:09;84441.38;;;-145.17;28.85
32759;BME280;19125;52.360;9.974;2023-06-14T09:27:34;84415.59;;;-145.17;28.84
32759;BME280;19125;52.360;9.974;2023-06-14T09:30:02;84368.00;;;-145.17;28.71
32759;BME280;19125;52.360;9.974;2023-06-14T09:32:27;84397.75;;;-145.17;28.48
32759;BME280;19125;52.360;9.974;2023-06-14T09:34:53;84453.28;;;-145.17;28.14
32759;BME280;19125;52.360;9.974;2023-06-14T09:37:31;84467.16;;;-145.17;28.63
32759;BME280;19125;52.360;9.974;2023-06-14T09:39:58;84500.88;;;-145.17;28.55
32759;BME280;19125;52.360;9.974;2023-06-14T09:42:23;84524.69;;;-145.17;28.27
32759;BME280;19125;52.360;9.974;2023-06-14T09:44:51;84447.34;;;-145.17;28.77
32759;BME280;19125;52.360;9.974;2023-06-14T09:47:17;84451.28;;;-145.17;28.70
32759;BME280;19125;52.360;9.974;2023-06-14T09:49:43;84391.78;;;-145.17;28.44
32759;BME280;19125;52.360;9.974;2023-06-14T09:52:12;84364.03;;;-145.17;28.82
32759;BME280;19125;52.360;9.974;2023-06-14T09:54:41;84368.00;;;-145.17;28.65
32759;BME280;19125;52.360;9.974;2023-06-14T09:57:15;84369.97;;;-145.17;28.22
32759;BME280;19125;52.360;9.974;2023-06-14T09:59:43;84385.84;;;-145.17;28.14
32759;BME280;19125;52.360;9.974;2023-06-14T10:02:22;84358.06;;;-145.17;28.04
32759;BME280;19125;52.360;9.974;2023-06-14T10:04:54;84369.97;;;-145.17;28.46
32759;BME280;19125;52.360;9.974;2023-06-14T10:07:23;84310.47;;;-145.17;27.99
32759;BME280;19125;52.360;9.974;2023-06-14T10:09:52;84368.00;;;-145.17;27.72
32759;BME280;19125;52.360;9.974;2023-06-14T10:12:18;84274.78;;;-145.17;27.58
32759;BME280;19125;52.360;9.974;2023-06-14T10:14:51;84243.03;;;-145.17;27.86
32759;BME280;19125;52.360;9.974;2023-06-14T10:17:26;84312.44;;;-145.17;27.74
32759;BME280;19125;52.360;9.974;2023-06-14T10:20:33;84328.31;;;-145.17;27.48
32759;BME280;19125;52.360;9.974;2023-06-14T10:23:06;84342.22;;;-145.17;28.36
32759;BME280;19125;52.360;9.974;2023-06-14T10:25:33;84286.66;;;-145.17;28.38
32759;BME280;19125;52.360;9.974;2023-06-14T10:28:15;84264.84;;;-145.17;27.14
32759;BME280;19125;52.360;9.974;2023-06-14T10:31:09;84278.72;;;-145.17;27.80
32759;BME280;19125;52.360;9.974;2023-06-14T10:33:39;84340.22;;;-145.17;27.88
32759;BME280;19125;52.360;9.974;2023-06-14T10:36:09;84373.94;;;-145.17;28.18
32759;BME280;19125;52.360;9.974;2023-06-14T10:38:36;84314.44;;;-145.17;27.72
32759;BME280;19125;52.360;9.974;2023-06-14T10:41:03;84340.22;;;-145.17;27.92
32759;BME280;19125;52.360;9.974;2023-06-14T10:43:29;84385.84;;;-145.17;27.81
32759;BME280;19125;52.360;9.974;2023-06-14T10:46:17;84294.59;;;-145.17;27.87
32759;BME280;19125;52.360;9.974;2023-06-14T10:48:44;84294.59;;;-145.17;27.72
32759;BME280;19125;52.360;9.974;2023-06-14T10:51:16;84280.72;;;-145.17;27.24
32759;BME280;19125;52.360;9.974;2023-06-14T10:53:46;84298.56;;;-145.17;27.64
32759;BME280;19125;52.360;9.974;2023-06-14T10:56:32;84280.72;;;-145.17;28.00
32759;BME280;19125;52.360;9.974;2023-06-14T10:58:58;84298.56;;;-145.17;27.95
32759;BME280;19125;52.360;9.974;2023-06-14T11:04:34;84256.91;;;-145.17;27.00
32759;BME280;19125;52.360;9.974;2023-06-14T11:10:38;84143.88;;;-145.17;26.88
32759;BME280;19125;52.360;9.974;2023-06-14T11:13:04;84161.72;;;-145.17;26.96
32759;BME280;19125;52.360;9.974;2023-06-14T11:15:30;84179.56;;;-145.17;26.85
32759;BME280;19125;52.360;9.974;2023-06-14T11:17:56;84187.50;;;-145.17;26.81
32759;BME280;19125;52.360;9.974;2023-06-14T11:20:27;84157.75;;;-145.17;26.93
32759;BME280;19125;52.360;9.974;2023-06-14T11:22:53;84070.47;;;-145.17;26.38
32759;BME280;19125;52.360;9.974;2023-06-14T11:25:19;84060.56;;;-145.17;25.79
32759;BME280;19125;52.360;9.974;2023-06-14T11:27:45;84133.94;;;-145.17;26.17
32759;BME280;19125;52.360;9.974;2023-06-14T11:30:13;84203.38;;;-145.17;26.93
32759;BME280;19125;52.360;9.974;2023-06-14T11:32:39;84128.00;;;-145.17;27.22
32759;BME280;19125;52.360;9.974;2023-06-14T11:35:05;84161.72;;;-145.17;26.67
32759;BME280;19125;52.360;9.974;2023-06-14T11:37:31;84197.41;;;-145.17;27.11
32759;BME280;19125;52.360;9.974;2023-06-14T11:40:01;84131.97;;;-145.17;27.04
32759;BME280;19125;52.360;9.974;2023-06-14T11:42:28;84100.22;;;-145.17;26.74
32759;BME280;19125;52.360;9.974;2023-06-14T11:44:55;84100.22;;;-145.17;26.77
32759;BME280;19125;52.360;9.974;2023-06-14T11:47:21;84175.59;;;-145.17;27.01
32759;BME280;19125;52.360;9.974;2023-06-14T11:49:47;84183.53;;;-145.17;27.50
32759;BME280;19125;52.360;9.974;2023-06-14T11:52:12;84195.44;;;-145.17;27.44
32759;BME280;19125;52.360;9.974;2023-06-14T11:54:38;84207.34;;;-145.17;27.39
32759;BME280;19125;52.360;9.974;2023-06-14T11:57:06;84195.44;;;-145.17;27.62
32759;BME280;19125;52.360;9.974;2023-06-14T11:59:32;84219.22;;;-145.17;27.52
32759;BME280;19125;52.360;9.974;2023-06-14T12:02:02;84227.16;;;-145.17;27.82
32759;BME280;19125;52.360;9.974;2023-06-14T12:04:29;84145.84;;;-145.17;27.42
32759;BME280;19125;52.360;9.974;2023-06-14T12:06:55;83913.81;;;-145.17;27.04
32759;BME280;19125;52.360;9.974;2023-06-14T12:09:22;83953.47;;;-145.17;26.33
32759;BME280;19125;52.360;9.974;2023-06-14T12:11:49;83985.19;;;-145.17;26.69
32759;BME280;19125;52.360;9.974;2023-06-14T12:14:15;83961.41;;;-145.17;25.97
32759;BME280;19125;52.360;9.974;2023-06-14T12:16:40;84016.94;;;-145.17;26.30
32759;BME280;19125;52.360;9.974;2023-06-14T12:19:14;84030.81;;;-145.17;26.93
32759;BME280;19125;52.360;9.974;2023-06-14T12:21:40;83939.59;;;-145.17;26.60
32759;BME280;19125;52.360;9.974;2023-06-14T12:24:07;84030.81;;;-145.17;26.26
32759;BME280;19125;52.360;9.974;2023-06-14T12:26:33;83985.19;;;-145.17;26.38
32759;BME280;19125;52.360;9.974;2023-06-14T12:28:58;83897.94;;;-145.17;26.06
32759;BME280;19125;52.360;9.974;2023-06-14T12:31:24;83856.28;;;-145.17;25.78
32759;BME280;19125;52.360;9.974;2023-06-14T12:33:50;83891.97;;;-145.17;26.40
32759;BME280;19125;52.360;9.974;2023-06-14T12:36:16;83925.69;;;-145.17;25.87
32759;BME280;19125;52.360;9.974;2023-06-14T12:38:42;83969.34;;;-145.17;26.58
32759;BME280;19125;52.360;9.974;2023-06-14T12:41:08;83977.25;;;-145.17;26.28
32759;BME280;19125;52.360;9.974;2023-06-14T12:43:33;83957.44;;;-145.17;26.44
32759;BME280;19125;52.360;9.974;2023-06-14T12:45:59;83939.59;;;-145.17;26.02
32759;BME280;19125;52.360;9.974;2023-06-14T12:48:25;83925.69;;;-145.17;25.77